Home > Products > Valid Products > TAF

000
FTUS46 KOTX 021720
TAFCOE
TAF
KCOE 021720Z 0218/0318 23008KT P6SM SCT200
     FM022100 23014G22KT P6SM SCT060 SCT200
     FM030700 22013KT P6SM VCSH FEW050 BKN080
     FM031100 21011G18KT P6SM -SHRA BKN050 OVC090
      AMD LTD TO CLD AND VIS=



000
FTUS46 KOTX 021720
TAFSFF
TAF
KSFF 021720Z 0218/0318 22008KT P6SM SCT200
     FM022100 23012G20KT P6SM FEW060 SCT200
     FM030600 24010KT P6SM VCSH FEW050 BKN090
     FM031200 22009G17KT P6SM -SHRA BKN070 OVC090=



000
FTUS46 KOTX 021720
TAFGEG
TAF
KGEG 021720Z 0218/0318 20010KT P6SM SCT200
     FM022000 23014G22KT P6SM FEW060 SCT200
     FM030600 24016G23KT P6SM VCSH SCT080 BKN150
     FM031100 22016G23KT P6SM -SHRA BKN060 OVC090=



000
FTUS46 KOTX 021720
TAFPUW
TAF
KPUW 021720Z 0218/0318 24008KT P6SM SCT250
     FM022000 25016G23KT P6SM SCT250
     FM030300 24022G32KT P6SM SCT070 BKN150
     FM030600 24017G25KT P6SM VCSH BKN070 OVC100
     FM031300 27022G30KT P6SM -SHRA SCT040 BKN060 OVC100=



000
FTUS46 KOTX 021720
TAFSFF
TAF
KSFF 021720Z 0218/0318 22008KT P6SM SCT200
     FM022100 23012G20KT P6SM FEW060 SCT200
     FM030600 24010KT P6SM VCSH FEW050 BKN090
     FM031200 22009G17KT P6SM -SHRA BKN070 OVC090=



000
FTUS46 KOTX 021720
TAFMWH
TAF
KMWH 021720Z 0218/0318 22009KT P6SM FEW250
     FM022200 23015G23KT P6SM FEW250
     FM030000 27028G35KT P6SM SCT060 BKN150
     FM030600 26020KT P6SM SCT100 BKN150
     FM031500 32014KT P6SM SCT080=



000
FTUS46 KOTX 021720
TAFLWS
TAF
KLWS 021720Z 0218/0318 33005KT P6SM FEW250
     FM022200 32015G23KT P6SM SKC
     FM030300 27018G28KT P6SM SCT090
     FM030600 27014G22KT P6SM VCSH SCT070 BKN150=



000
FTUS46 KOTX 021720
TAFGEG
TAF
KGEG 021720Z 0218/0318 20010KT P6SM SCT200
     FM022000 23014G22KT P6SM FEW060 SCT200
     FM030600 24016G23KT P6SM VCSH SCT080 BKN150
     FM031100 22016G23KT P6SM -SHRA BKN060 OVC090=



000
FTUS46 KOTX 021720
TAFEAT
TAF
KEAT 021720Z 0218/0318 30009KT P6SM BKN200
     FM022300 30024G37KT P6SM SCT070 BKN120
     FM030400 30016G25KT P6SM BKN100
     FM031500 33014KT P6SM SCT100=



000
FTUS46 KOTX 021720
TAFLWS
TAF
KLWS 021720Z 0218/0318 33005KT P6SM FEW250
     FM022200 32015G23KT P6SM SKC
     FM030300 27018G28KT P6SM SCT090
     FM030600 27014G22KT P6SM VCSH SCT070 BKN150=



000
FTUS46 KOTX 021720
TAFCOE
TAF
KCOE 021720Z 0218/0318 23008KT P6SM SCT200
     FM022100 23014G22KT P6SM SCT060 SCT200
     FM030700 22013KT P6SM VCSH FEW050 BKN080
     FM031100 21011G18KT P6SM -SHRA BKN050 OVC090
      AMD LTD TO CLD AND VIS=



000
FTUS46 KOTX 021720
TAFEAT
TAF
KEAT 021720Z 0218/0318 30009KT P6SM BKN200
     FM022300 30024G37KT P6SM SCT070 BKN120
     FM030400 30016G25KT P6SM BKN100
     FM031500 33014KT P6SM SCT100=



000
FTUS46 KOTX 021720
TAFMWH
TAF
KMWH 021720Z 0218/0318 22009KT P6SM FEW250
     FM022200 23015G23KT P6SM FEW250
     FM030000 27028G35KT P6SM SCT060 BKN150
     FM030600 26020KT P6SM SCT100 BKN150
     FM031500 32014KT P6SM SCT080=



000
FTUS46 KOTX 021720
TAFPUW
TAF
KPUW 021720Z 0218/0318 24008KT P6SM SCT250
     FM022000 25016G23KT P6SM SCT250
     FM030300 24022G32KT P6SM SCT070 BKN150
     FM030600 24017G25KT P6SM VCSH BKN070 OVC100
     FM031300 27022G30KT P6SM -SHRA SCT040 BKN060 OVC100=



000
FTUS46 KOTX 021144 CCA
TAFEAT
TAF COR
KEAT 021144Z 0212/0312 30009KT P6SM BKN200
     FM022300 30024G37KT P6SM FEW070 SCT100
     FM030400 30016G25KT P6SM SCT100=



000
FTUS46 KOTX 021144 CCA
TAFEAT
TAF COR
KEAT 021144Z 0212/0312 30009KT P6SM BKN200
     FM022300 30024G37KT P6SM FEW070 SCT100
     FM030400 30016G25KT P6SM SCT100=



000
FTUS46 KOTX 021139
TAFCOE
TAF
KCOE 021139Z 0212/0312 17005KT P6SM SCT200
     FM021500 19008KT P6SM BKN200
     FM021900 23012G20KT P6SM FEW060 SCT200
     FM030400 22015G23KT P6SM VCSH FEW050 BKN080
     FM030600 21011G18KT P6SM SCT090
     FM031100 21011G18KT P6SM -SHRA BKN070 OVC090
      AMD LTD TO CLD AND VIS=



000
FTUS46 KOTX 021139
TAFEAT
TAF
KEAT 021139Z 0212/0312 30009KT P6SM BKN200
     FM022300 31024G35KT P6SM FEW060 SCT100
     FM030000 30022G32KT P6SM FEW060 SCT100=



000
FTUS46 KOTX 021139
TAFLWS
TAF
KLWS 021139Z 0212/0312 10003KT P6SM SCT250
     FM021700 33005KT P6SM FEW250
     FM022200 32015G23KT P6SM SKC
     FM030300 27018G28KT P6SM SCT090
     FM030600 27014G22KT P6SM SKC=



000
FTUS46 KOTX 021139
TAFSFF
TAF
KSFF 021139Z 0212/0312 05004KT P6SM SCT200
     FM021600 20006KT P6SM BKN200
     FM022100 23012G20KT P6SM FEW060 SCT200
     FM030400 24017G25KT P6SM VCSH FEW050 BKN090
     FM030600 23012G20KT P6SM SCT090
     FM031100 22009G17KT P6SM -SHRA BKN070 OVC090=



000
FTUS46 KOTX 021139
TAFGEG
TAF
KGEG 021139Z 0212/0312 16007KT P6SM SCT200
     FM021700 21010KT P6SM BKN200
     FM022000 23014G22KT P6SM FEW060 SCT200
     FM030300 24020G30KT P6SM VCSH FEW050 BKN080
     FM030500 24016G23KT P6SM SCT080
     FM031100 22016G23KT P6SM -SHRA BKN070 OVC090=



000
FTUS46 KOTX 021139
TAFPUW
TAF
KPUW 021139Z 0212/0312 09004KT P6SM SCT250
     FM021600 24011KT P6SM SCT250
     FM022000 25016G23KT P6SM FEW250
     FM030300 24021G30KT P6SM VCSH SCT070 BKN090
     FM030600 24017G25KT P6SM SKC=



000
FTUS46 KOTX 021139
TAFMWH
TAF
KMWH 021139Z 0212/0312 VRB04KT P6SM SCT250
     FM021700 22009KT P6SM FEW250
     FM022200 23015G23KT P6SM FEW250
     FM030000 27022G30KT P6SM FEW060 SCT100
     FM030600 26014G22KT P6SM SCT100=



000
FTUS46 KOTX 021139
TAFPUW
TAF
KPUW 021139Z 0212/0312 09004KT P6SM SCT250
     FM021600 24011KT P6SM SCT250
     FM022000 25016G23KT P6SM FEW250
     FM030300 24021G30KT P6SM VCSH SCT070 BKN090
     FM030600 24017G25KT P6SM SKC=



000
FTUS46 KOTX 021139
TAFMWH
TAF
KMWH 021139Z 0212/0312 VRB04KT P6SM SCT250
     FM021700 22009KT P6SM FEW250
     FM022200 23015G23KT P6SM FEW250
     FM030000 27022G30KT P6SM FEW060 SCT100
     FM030600 26014G22KT P6SM SCT100=



000
FTUS46 KOTX 021139
TAFEAT
TAF
KEAT 021139Z 0212/0312 30009KT P6SM BKN200
     FM022300 31024G35KT P6SM FEW060 SCT100
     FM030000 30022G32KT P6SM FEW060 SCT100=



000
FTUS46 KOTX 021139
TAFSFF
TAF
KSFF 021139Z 0212/0312 05004KT P6SM SCT200
     FM021600 20006KT P6SM BKN200
     FM022100 23012G20KT P6SM FEW060 SCT200
     FM030400 24017G25KT P6SM VCSH FEW050 BKN090
     FM030600 23012G20KT P6SM SCT090
     FM031100 22009G17KT P6SM -SHRA BKN070 OVC090=



000
FTUS46 KOTX 021139
TAFGEG
TAF
KGEG 021139Z 0212/0312 16007KT P6SM SCT200
     FM021700 21010KT P6SM BKN200
     FM022000 23014G22KT P6SM FEW060 SCT200
     FM030300 24020G30KT P6SM VCSH FEW050 BKN080
     FM030500 24016G23KT P6SM SCT080
     FM031100 22016G23KT P6SM -SHRA BKN070 OVC090=



000
FTUS46 KOTX 021139
TAFLWS
TAF
KLWS 021139Z 0212/0312 10003KT P6SM SCT250
     FM021700 33005KT P6SM FEW250
     FM022200 32015G23KT P6SM SKC
     FM030300 27018G28KT P6SM SCT090
     FM030600 27014G22KT P6SM SKC=



000
FTUS46 KOTX 021139
TAFCOE
TAF
KCOE 021139Z 0212/0312 17005KT P6SM SCT200
     FM021500 19008KT P6SM BKN200
     FM021900 23012G20KT P6SM FEW060 SCT200
     FM030400 22015G23KT P6SM VCSH FEW050 BKN080
     FM030600 21011G18KT P6SM SCT090
     FM031100 21011G18KT P6SM -SHRA BKN070 OVC090
      AMD LTD TO CLD AND VIS=



000
FTUS46 KOTX 020520
TAFSFF
TAF
KSFF 020520Z 0206/0306 VRB03KT P6SM SCT250
     FM021500 19005KT P6SM BKN200
     FM022000 23010G18KT P6SM FEW060 BKN200
     FM030400 24014G22KT P6SM VCSH FEW050 BKN100=



000
FTUS46 KOTX 020520
TAFMWH
TAF
KMWH 020520Z 0206/0306 23005KT P6SM SCT250
     FM022100 23010G16KT P6SM FEW060 SCT100
     FM030000 27020G30KT P6SM FEW060 SCT100=



000
FTUS46 KOTX 020520
TAFPUW
TAF
KPUW 020520Z 0206/0306 VRB02KT P6SM SCT250
     FM021600 21007KT P6SM SCT250
     FM021800 25013G20KT P6SM FEW060 BKN200
     FM030300 24016G25KT P6SM FEW050 SCT080=



000
FTUS46 KOTX 020520
TAFPUW
TAF
KPUW 020520Z 0206/0306 VRB02KT P6SM SCT250
     FM021600 21007KT P6SM SCT250
     FM021800 25013G20KT P6SM FEW060 BKN200
     FM030300 24016G25KT P6SM FEW050 SCT080=



000
FTUS46 KOTX 020520
TAFEAT
TAF
KEAT 020520Z 0206/0306 30010KT P6SM BKN200
     FM022100 31011G18KT P6SM FEW060 SCT100
     FM030000 30022G32KT P6SM FEW060 SCT100=



000
FTUS46 KOTX 020520
TAFGEG
TAF
KGEG 020520Z 0206/0306 18007KT P6SM SCT250
     FM021500 21010KT P6SM BKN200
     FM021900 23013G20KT P6SM FEW060 BKN200
     FM030400 24018G28KT P6SM VCSH FEW050 BKN090=



000
FTUS46 KOTX 020520
TAFCOE
TAF
KCOE 020520Z 0206/0306 16005KT P6SM FEW250
     FM021500 19008KT P6SM BKN200
     FM021900 23010G17KT P6SM FEW060 BKN200
     FM030400 22011G19KT P6SM VCSH FEW050 BKN090
      AMD LTD TO CLD AND VIS=



000
FTUS46 KOTX 020520
TAFLWS
TAF
KLWS 020520Z 0206/0306 VRB03KT P6SM SCT250
     FM021700 33005KT P6SM SCT250
     FM022100 32010KT P6SM SCT200
     FM030000 30015G22KT P6SM FEW150=



000
FTUS46 KOTX 020520
TAFGEG
TAF
KGEG 020520Z 0206/0306 18007KT P6SM SCT250
     FM021500 21010KT P6SM BKN200
     FM021900 23013G20KT P6SM FEW060 BKN200
     FM030400 24018G28KT P6SM VCSH FEW050 BKN090=



000
FTUS46 KOTX 020520
TAFCOE
TAF
KCOE 020520Z 0206/0306 16005KT P6SM FEW250
     FM021500 19008KT P6SM BKN200
     FM021900 23010G17KT P6SM FEW060 BKN200
     FM030400 22011G19KT P6SM VCSH FEW050 BKN090
      AMD LTD TO CLD AND VIS=



000
FTUS46 KOTX 020520
TAFMWH
TAF
KMWH 020520Z 0206/0306 23005KT P6SM SCT250
     FM022100 23010G16KT P6SM FEW060 SCT100
     FM030000 27020G30KT P6SM FEW060 SCT100=



000
FTUS46 KOTX 020520
TAFEAT
TAF
KEAT 020520Z 0206/0306 30010KT P6SM BKN200
     FM022100 31011G18KT P6SM FEW060 SCT100
     FM030000 30022G32KT P6SM FEW060 SCT100=



000
FTUS46 KOTX 020520
TAFLWS
TAF
KLWS 020520Z 0206/0306 VRB03KT P6SM SCT250
     FM021700 33005KT P6SM SCT250
     FM022100 32010KT P6SM SCT200
     FM030000 30015G22KT P6SM FEW150=



000
FTUS46 KOTX 020520
TAFSFF
TAF
KSFF 020520Z 0206/0306 VRB03KT P6SM SCT250
     FM021500 19005KT P6SM BKN200
     FM022000 23010G18KT P6SM FEW060 BKN200
     FM030400 24014G22KT P6SM VCSH FEW050 BKN100=



000
FTUS46 KOTX 012322
TAFLWS
TAF
KLWS 012322Z 0200/0224 32009KT P6SM FEW080
     FM020400 VRB03KT P6SM SKC
     FM021700 33005KT P6SM SCT250
     FM022100 32010KT P6SM SCT200=



000
FTUS46 KOTX 012322
TAFGEG
TAF
KGEG 012322Z 0200/0224 21011KT P6SM FEW070
     FM020200 18007KT P6SM FEW250
     FM021500 21010KT P6SM BKN250
     FM021900 23013G20KT P6SM FEW060 BKN200=



000
FTUS46 KOTX 012322
TAFPUW
TAF
KPUW 012322Z 0200/0224 24009KT P6SM FEW070
     FM020200 VRB02KT P6SM SKC
     FM021600 21007KT P6SM SCT250
     FM021800 25013G20KT P6SM FEW060 SCT200=



000
FTUS46 KOTX 012322
TAFMWH
TAF
KMWH 012322Z 0200/0224 20009KT P6SM FEW090
     FM020500 23005KT P6SM SCT250
     FM022100 23010G16KT P6SM FEW060 SCT100=



000
FTUS46 KOTX 012322
TAFSFF
TAF
KSFF 012322Z 0200/0224 21010KT P6SM FEW070
     FM020200 VRB03KT P6SM FEW250
     FM021500 19005KT P6SM BKN250
     FM022000 23010G18KT P6SM FEW060 BKN200=



000
FTUS46 KOTX 012322
TAFSFF
TAF
KSFF 012322Z 0200/0224 21010KT P6SM FEW070
     FM020200 VRB03KT P6SM FEW250
     FM021500 19005KT P6SM BKN250
     FM022000 23010G18KT P6SM FEW060 BKN200=



000
FTUS46 KOTX 012322
TAFPUW
TAF
KPUW 012322Z 0200/0224 24009KT P6SM FEW070
     FM020200 VRB02KT P6SM SKC
     FM021600 21007KT P6SM SCT250
     FM021800 25013G20KT P6SM FEW060 SCT200=



000
FTUS46 KOTX 012322
TAFCOE
TAF
KCOE 012322Z 0200/0224 24011G16KT P6SM FEW060
     FM020300 16005KT P6SM FEW250
     FM021500 19008KT P6SM BKN250
     FM021900 23010G17KT P6SM FEW060 BKN200
      AMD LTD TO CLD AND VIS=



000
FTUS46 KOTX 012322
TAFLWS
TAF
KLWS 012322Z 0200/0224 32009KT P6SM FEW080
     FM020400 VRB03KT P6SM SKC
     FM021700 33005KT P6SM SCT250
     FM022100 32010KT P6SM SCT200=



000
FTUS46 KOTX 012322
TAFMWH
TAF
KMWH 012322Z 0200/0224 20009KT P6SM FEW090
     FM020500 23005KT P6SM SCT250
     FM022100 23010G16KT P6SM FEW060 SCT100=



000
FTUS46 KOTX 012322
TAFCOE
TAF
KCOE 012322Z 0200/0224 24011G16KT P6SM FEW060
     FM020300 16005KT P6SM FEW250
     FM021500 19008KT P6SM BKN250
     FM021900 23010G17KT P6SM FEW060 BKN200
      AMD LTD TO CLD AND VIS=



000
FTUS46 KOTX 012322
TAFEAT
TAF
KEAT 012322Z 0200/0224 30010KT P6SM FEW090
     FM020400 30010KT P6SM FEW250
     FM022100 31011G18KT P6SM FEW060 SCT100=



000
FTUS46 KOTX 012322
TAFEAT
TAF
KEAT 012322Z 0200/0224 30010KT P6SM FEW090
     FM020400 30010KT P6SM FEW250
     FM022100 31011G18KT P6SM FEW060 SCT100=



000
FTUS46 KOTX 012322
TAFGEG
TAF
KGEG 012322Z 0200/0224 21011KT P6SM FEW070
     FM020200 18007KT P6SM FEW250
     FM021500 21010KT P6SM BKN250
     FM021900 23013G20KT P6SM FEW060 BKN200=



000
FTUS46 KOTX 012122 AAA
TAFCOE
TAF AMD
KCOE 012122Z 0121/0218 25013G18KT P6SM SCT060
     FM020200 16005KT P6SM FEW250
     FM021500 19008KT P6SM BKN250
      AMD LTD TO CLD AND VIS=



000
FTUS46 KOTX 012122 AAA
TAFCOE
TAF AMD
KCOE 012122Z 0121/0218 25013G18KT P6SM SCT060
     FM020200 16005KT P6SM FEW250
     FM021500 19008KT P6SM BKN250
      AMD LTD TO CLD AND VIS=



000
FTUS46 KOTX 012122 AAA
TAFGEG
TAF AMD
KGEG 012122Z 0121/0218 19010G20KT P6SM SCT060
     FM020200 18007KT P6SM FEW250
     FM021500 20009KT P6SM BKN250=



000
FTUS46 KOTX 012122 AAA
TAFGEG
TAF AMD
KGEG 012122Z 0121/0218 19010G20KT P6SM SCT060
     FM020200 18007KT P6SM FEW250
     FM021500 20009KT P6SM BKN250=



000
FTUS46 KOTX 011723
TAFEAT
TAF
KEAT 011723Z 0118/0218 32009KT P6SM SKC
     FM012100 21006KT P6SM SKC
     FM020000 30013KT P6SM SCT250
     FM021200 31009KT P6SM BKN250=



000
FTUS46 KOTX 011723
TAFLWS
TAF
KLWS 011723Z 0118/0218 32005KT P6SM FEW070
     FM020400 VRB03KT P6SM SKC
     FM021700 33005KT P6SM SCT250=



000
FTUS46 KOTX 011723
TAFSFF
TAF
KSFF 011723Z 0118/0218 21009KT P6SM FEW050
     FM020200 VRB03KT P6SM FEW250
     FM021500 19005KT P6SM BKN250=



000
FTUS46 KOTX 011723
TAFCOE
TAF
KCOE 011723Z 0118/0218 20009KT P6SM SCT050
     FM020300 16005KT P6SM FEW250
     FM021500 19008KT P6SM BKN250
      AMD LTD TO CLD AND VIS=



000
FTUS46 KOTX 011723
TAFMWH
TAF
KMWH 011723Z 0118/0218 20009KT P6SM SKC
     FM020500 23005KT P6SM SCT250
     FM021600 21009KT P6SM BKN250=



000
FTUS46 KOTX 011723
TAFGEG
TAF
KGEG 011723Z 0118/0218 19010KT P6SM FEW050
     FM020300 18007KT P6SM FEW250
     FM021500 20009KT P6SM BKN250=



000
FTUS46 KOTX 011723
TAFPUW
TAF
KPUW 011723Z 0118/0218 24009KT P6SM FEW050
     FM020200 VRB02KT P6SM SKC
     FM021600 21007KT P6SM SCT250=



000
FTUS46 KOTX 011723
TAFEAT
TAF
KEAT 011723Z 0118/0218 32009KT P6SM SKC
     FM012100 21006KT P6SM SKC
     FM020000 30013KT P6SM SCT250
     FM021200 31009KT P6SM BKN250=



000
FTUS46 KOTX 011723
TAFSFF
TAF
KSFF 011723Z 0118/0218 21009KT P6SM FEW050
     FM020200 VRB03KT P6SM FEW250
     FM021500 19005KT P6SM BKN250=



000
FTUS46 KOTX 011723
TAFGEG
TAF
KGEG 011723Z 0118/0218 19010KT P6SM FEW050
     FM020300 18007KT P6SM FEW250
     FM021500 20009KT P6SM BKN250=



000
FTUS46 KOTX 011723
TAFPUW
TAF
KPUW 011723Z 0118/0218 24009KT P6SM FEW050
     FM020200 VRB02KT P6SM SKC
     FM021600 21007KT P6SM SCT250=



000
FTUS46 KOTX 011723
TAFLWS
TAF
KLWS 011723Z 0118/0218 32005KT P6SM FEW070
     FM020400 VRB03KT P6SM SKC
     FM021700 33005KT P6SM SCT250=



000
FTUS46 KOTX 011723
TAFCOE
TAF
KCOE 011723Z 0118/0218 20009KT P6SM SCT050
     FM020300 16005KT P6SM FEW250
     FM021500 19008KT P6SM BKN250
      AMD LTD TO CLD AND VIS=



000
FTUS46 KOTX 011723
TAFMWH
TAF
KMWH 011723Z 0118/0218 20009KT P6SM SKC
     FM020500 23005KT P6SM SCT250
     FM021600 21009KT P6SM BKN250=



000
FTUS46 KOTX 011606 AAA
TAFCOE
TAF AMD
KCOE 011606Z 0116/0212 18011KT P6SM SKC
     FM011800 23011G17KT P6SM FEW060
     FM020300 19005KT P6SM FEW250
     FM020600 15005KT P6SM SCT250
      AMD LTD TO CLD AND VIS=



000
FTUS46 KOTX 011606 AAA
TAFCOE
TAF AMD
KCOE 011606Z 0116/0212 18011KT P6SM SKC
     FM011800 23011G17KT P6SM FEW060
     FM020300 19005KT P6SM FEW250
     FM020600 15005KT P6SM SCT250
      AMD LTD TO CLD AND VIS=



000
FTUS46 KOTX 011127
TAFPUW
TAF
KPUW 011127Z 0112/0212 24004KT P6SM BKN060
     FM011700 24009G15KT P6SM FEW060
     FM020200 23003KT P6SM SKC=



000
FTUS46 KOTX 011127
TAFEAT
TAF
KEAT 011127Z 0112/0212 32008KT P6SM SKC
     FM011800 26004KT P6SM SKC
     FM020000 30013KT P6SM SCT250=



000
FTUS46 KOTX 011127
TAFLWS
TAF
KLWS 011127Z 0112/0212 10002KT P6SM BKN080
     FM011800 33007KT P6SM FEW080
     FM020300 13003KT P6SM SKC=



000
FTUS46 KOTX 011127
TAFCOE
TAF
KCOE 011127Z 0112/0212 VRB04KT P6SM SCT120
     FM011800 23011G17KT P6SM FEW060
     FM020300 19005KT P6SM FEW250
     FM020600 15005KT P6SM SCT250
      AMD LTD TO CLD AND VIS=



000
FTUS46 KOTX 011127
TAFGEG
TAF
KGEG 011127Z 0112/0212 17007KT P6SM FEW120
     FM011700 22011G17KT P6SM FEW060
     FM020300 21007KT P6SM FEW250
     FM020800 17006KT P6SM SCT250=



000
FTUS46 KOTX 011127
TAFSFF
TAF
KSFF 011127Z 0112/0212 VRB03KT P6SM FEW120
     FM011800 22010G15KT P6SM FEW060
     FM020200 VRB03KT P6SM FEW250=



000
FTUS46 KOTX 011127
TAFMWH
TAF
KMWH 011127Z 0112/0212 24006KT P6SM SKC
     FM012000 22010KT P6SM SKC
     FM020500 23005KT P6SM SCT250=



000
FTUS46 KOTX 011127
TAFMWH
TAF
KMWH 011127Z 0112/0212 24006KT P6SM SKC
     FM012000 22010KT P6SM SKC
     FM020500 23005KT P6SM SCT250=



000
FTUS46 KOTX 011127
TAFEAT
TAF
KEAT 011127Z 0112/0212 32008KT P6SM SKC
     FM011800 26004KT P6SM SKC
     FM020000 30013KT P6SM SCT250=



000
FTUS46 KOTX 011127
TAFCOE
TAF
KCOE 011127Z 0112/0212 VRB04KT P6SM SCT120
     FM011800 23011G17KT P6SM FEW060
     FM020300 19005KT P6SM FEW250
     FM020600 15005KT P6SM SCT250
      AMD LTD TO CLD AND VIS=



000
FTUS46 KOTX 011127
TAFPUW
TAF
KPUW 011127Z 0112/0212 24004KT P6SM BKN060
     FM011700 24009G15KT P6SM FEW060
     FM020200 23003KT P6SM SKC=



000
FTUS46 KOTX 011127
TAFLWS
TAF
KLWS 011127Z 0112/0212 10002KT P6SM BKN080
     FM011800 33007KT P6SM FEW080
     FM020300 13003KT P6SM SKC=



000
FTUS46 KOTX 011127
TAFGEG
TAF
KGEG 011127Z 0112/0212 17007KT P6SM FEW120
     FM011700 22011G17KT P6SM FEW060
     FM020300 21007KT P6SM FEW250
     FM020800 17006KT P6SM SCT250=



000
FTUS46 KOTX 011127
TAFSFF
TAF
KSFF 011127Z 0112/0212 VRB03KT P6SM FEW120
     FM011800 22010G15KT P6SM FEW060
     FM020200 VRB03KT P6SM FEW250=



000
FTUS46 KOTX 010520
TAFPUW
TAF
KPUW 010520Z 0106/0206 24004KT P6SM FEW070
     FM011600 24011KT P6SM FEW050 SCT100
     FM020300 23003KT P6SM SKC=



000
FTUS46 KOTX 010520
TAFMWH
TAF
KMWH 010520Z 0106/0206 28007KT P6SM FEW120
     FM010800 22004KT P6SM FEW100
     FM012000 22010KT P6SM FEW070=



000
FTUS46 KOTX 010520
TAFCOE
TAF
KCOE 010520Z 0106/0206 18008KT P6SM FEW100
     FM011800 23011G17KT P6SM FEW060 SCT100
     FM020300 19007KT P6SM FEW250
      AMD LTD TO CLD AND VIS=



000
FTUS46 KOTX 010520
TAFGEG
TAF
KGEG 010520Z 0106/0206 19007KT P6SM FEW120
     FM011800 22011G17KT P6SM FEW060 SCT100
     FM020300 21009KT P6SM FEW250=



000
FTUS46 KOTX 010520
TAFLWS
TAF
KLWS 010520Z 0106/0206 23005KT P6SM FEW080
     FM011100 VRB03KT P6SM FEW070
     FM011900 30009KT P6SM FEW080=



000
FTUS46 KOTX 010520
TAFEAT
TAF
KEAT 010520Z 0106/0206 30010KT P6SM SKC
     FM011200 29008KT P6SM FEW070=



000
FTUS46 KOTX 010520
TAFSFF
TAF
KSFF 010520Z 0106/0206 VRB03KT P6SM FEW120
     FM011800 22010G15KT P6SM FEW060 SCT100
     FM020200 23005KT P6SM FEW250=



000
FTUS46 KOTX 010520
TAFCOE
TAF
KCOE 010520Z 0106/0206 18008KT P6SM FEW100
     FM011800 23011G17KT P6SM FEW060 SCT100
     FM020300 19007KT P6SM FEW250
      AMD LTD TO CLD AND VIS=



000
FTUS46 KOTX 010520
TAFSFF
TAF
KSFF 010520Z 0106/0206 VRB03KT P6SM FEW120
     FM011800 22010G15KT P6SM FEW060 SCT100
     FM020200 23005KT P6SM FEW250=



000
FTUS46 KOTX 010520
TAFLWS
TAF
KLWS 010520Z 0106/0206 23005KT P6SM FEW080
     FM011100 VRB03KT P6SM FEW070
     FM011900 30009KT P6SM FEW080=



000
FTUS46 KOTX 010520
TAFGEG
TAF
KGEG 010520Z 0106/0206 19007KT P6SM FEW120
     FM011800 22011G17KT P6SM FEW060 SCT100
     FM020300 21009KT P6SM FEW250=



000
FTUS46 KOTX 010520
TAFPUW
TAF
KPUW 010520Z 0106/0206 24004KT P6SM FEW070
     FM011600 24011KT P6SM FEW050 SCT100
     FM020300 23003KT P6SM SKC=



000
FTUS46 KOTX 010520
TAFMWH
TAF
KMWH 010520Z 0106/0206 28007KT P6SM FEW120
     FM010800 22004KT P6SM FEW100
     FM012000 22010KT P6SM FEW070=



000
FTUS46 KOTX 010520
TAFEAT
TAF
KEAT 010520Z 0106/0206 30010KT P6SM SKC
     FM011200 29008KT P6SM FEW070=



000
FTUS46 KOTX 312323
TAFCOE
TAF
KCOE 312323Z 0100/0124 24011KT P6SM SCT060 BKN090 BKN200
     FM010300 21008KT P6SM SCT070 BKN120
     FM010700 18008KT P6SM FEW150
     FM011200 19007KT P6SM FEW100
     FM011800 23011G17KT P6SM FEW060 SCT100
      AMD LTD TO CLD AND VIS=



000
FTUS46 KOTX 312323
TAFPUW
TAF
KPUW 312323Z 0100/0124 25013KT P6SM SCT060 BKN200
     FM010200 24004KT P6SM SCT060 BKN200
     FM010900 24004KT P6SM FEW060
     FM011600 24011KT P6SM SCT050 SCT100=



000
FTUS46 KOTX 312323
TAFGEG
TAF
KGEG 312323Z 0100/0124 22016KT P6SM SCT060 BKN090 BKN200
     FM010300 21008KT P6SM SCT070 BKN120
     FM010700 20008KT P6SM FEW150
     FM011200 19007KT P6SM FEW100
     FM011800 22011G17KT P6SM FEW060 SCT100=



000
FTUS46 KOTX 312323
TAFSFF
TAF
KSFF 312323Z 0100/0124 22012KT P6SM SCT060 BKN090 BKN200
     FM010300 24005KT P6SM SCT070 BKN120
     FM010700 21005KT P6SM FEW120
     FM011800 22010G15KT P6SM FEW060 SCT100=



000
FTUS46 KOTX 312323
TAFEAT
TAF
KEAT 312323Z 0100/0124 30014G21KT P6SM FEW080 SCT200
     FM010400 30010KT P6SM SKC
     FM011200 29008KT P6SM SCT070=



000
FTUS46 KOTX 312323
TAFMWH
TAF
KMWH 312323Z 0100/0124 24012KT P6SM SCT080 BKN200
     FM010300 28007KT P6SM FEW120
     FM010800 22004KT P6SM FEW100
     FM012000 22010KT P6SM FEW070=



000
FTUS46 KOTX 312323
TAFLWS
TAF
KLWS 312323Z 0100/0124 30010KT P6SM SCT080 BKN200
     FM010300 23005KT P6SM SCT080
     FM011100 VRB03KT P6SM FEW070
     FM011900 30009KT P6SM FEW080=



000
FTUS46 KOTX 312323
TAFPUW
TAF
KPUW 312323Z 0100/0124 25013KT P6SM SCT060 BKN200
     FM010200 24004KT P6SM SCT060 BKN200
     FM010900 24004KT P6SM FEW060
     FM011600 24011KT P6SM SCT050 SCT100=



000
FTUS46 KOTX 312323
TAFGEG
TAF
KGEG 312323Z 0100/0124 22016KT P6SM SCT060 BKN090 BKN200
     FM010300 21008KT P6SM SCT070 BKN120
     FM010700 20008KT P6SM FEW150
     FM011200 19007KT P6SM FEW100
     FM011800 22011G17KT P6SM FEW060 SCT100=



000
FTUS46 KOTX 312323
TAFLWS
TAF
KLWS 312323Z 0100/0124 30010KT P6SM SCT080 BKN200
     FM010300 23005KT P6SM SCT080
     FM011100 VRB03KT P6SM FEW070
     FM011900 30009KT P6SM FEW080=



000
FTUS46 KOTX 312323
TAFSFF
TAF
KSFF 312323Z 0100/0124 22012KT P6SM SCT060 BKN090 BKN200
     FM010300 24005KT P6SM SCT070 BKN120
     FM010700 21005KT P6SM FEW120
     FM011800 22010G15KT P6SM FEW060 SCT100=



000
FTUS46 KOTX 312323
TAFEAT
TAF
KEAT 312323Z 0100/0124 30014G21KT P6SM FEW080 SCT200
     FM010400 30010KT P6SM SKC
     FM011200 29008KT P6SM SCT070=



000
FTUS46 KOTX 312323
TAFMWH
TAF
KMWH 312323Z 0100/0124 24012KT P6SM SCT080 BKN200
     FM010300 28007KT P6SM FEW120
     FM010800 22004KT P6SM FEW100
     FM012000 22010KT P6SM FEW070=



000
FTUS46 KOTX 312323
TAFCOE
TAF
KCOE 312323Z 0100/0124 24011KT P6SM SCT060 BKN090 BKN200
     FM010300 21008KT P6SM SCT070 BKN120
     FM010700 18008KT P6SM FEW150
     FM011200 19007KT P6SM FEW100
     FM011800 23011G17KT P6SM FEW060 SCT100
      AMD LTD TO CLD AND VIS=



000
FTUS46 KOTX 312029 AAA
TAFMWH
TAF AMD
KMWH 312029Z 3120/0118 21012KT P6SM BKN060 OVC080
     FM010300 28007KT P6SM FEW080 SCT150
     FM010800 23004KT P6SM FEW100=



000
FTUS46 KOTX 312029 AAA
TAFMWH
TAF AMD
KMWH 312029Z 3120/0118 21012KT P6SM BKN060 OVC080
     FM010300 28007KT P6SM FEW080 SCT150
     FM010800 23004KT P6SM FEW100=



000
FTUS46 KOTX 311902 AAA
TAFPUW
TAF AMD
KPUW 311902Z 3119/0118 26014G20KT P6SM SCT040 BKN060 BKN150
     FM010200 25004KT P6SM SCT060
     FM011600 24008KT P6SM FEW030 SCT100=



000
FTUS46 KOTX 311902 AAA
TAFPUW
TAF AMD
KPUW 311902Z 3119/0118 26014G20KT P6SM SCT040 BKN060 BKN150
     FM010200 25004KT P6SM SCT060
     FM011600 24008KT P6SM FEW030 SCT100=



000
FTUS46 KOTX 311900 AAA
TAFEAT
TAF AMD
KEAT 311900Z 3119/0118 30014G21KT P6SM BKN080 BKN150
     FM010400 30012KT P6SM FEW100
     FM011200 31008KT P6SM SCT030 SCT100=



000
FTUS46 KOTX 311900 AAA
TAFEAT
TAF AMD
KEAT 311900Z 3119/0118 30014G21KT P6SM BKN080 BKN150
     FM010400 30012KT P6SM FEW100
     FM011200 31008KT P6SM SCT030 SCT100=



000
FTUS46 KOTX 311720
TAFSFF
TAF
KSFF 311720Z 3118/0118 21010KT P6SM FEW025 SCT070 BKN100
     FM311900 23010G16KT P6SM SCT060 BKN080
     FM010200 VRB03KT P6SM SCT070 SCT150
     FM011200 22005KT P6SM SCT020 SCT120=



000
FTUS46 KOTX 311720
TAFGEG
TAF
KGEG 311720Z 3118/0118 22013G20KT P6SM SCT060 BKN090 BKN150
     FM010300 21008KT P6SM SCT070 BKN120
     FM011200 19007KT P6SM FEW018 SCT120=



000
FTUS46 KOTX 311720
TAFPUW
TAF
KPUW 311720Z 3118/0118 23012KT P6SM SCT050 BKN080 BKN150
     FM312000 24014G20KT P6SM BKN050 BKN150
     FM010200 25004KT P6SM SCT060
     FM011600 24008KT P6SM FEW030 SCT100=



000
FTUS46 KOTX 311720
TAFLWS
TAF
KLWS 311720Z 3118/0118 20010KT P6SM SCT070
     FM311900 28012KT P6SM SCT060 BKN150
     FM010300 23005KT P6SM FEW150
     FM011100 VRB03KT P6SM FEW040=



000
FTUS46 KOTX 311720
TAFPUW
TAF
KPUW 311720Z 3118/0118 23012KT P6SM SCT050 BKN080 BKN150
     FM312000 24014G20KT P6SM BKN050 BKN150
     FM010200 25004KT P6SM SCT060
     FM011600 24008KT P6SM FEW030 SCT100=



000
FTUS46 KOTX 311720
TAFGEG
TAF
KGEG 311720Z 3118/0118 22013G20KT P6SM SCT060 BKN090 BKN150
     FM010300 21008KT P6SM SCT070 BKN120
     FM011200 19007KT P6SM FEW018 SCT120=



000
FTUS46 KOTX 311720
TAFLWS
TAF
KLWS 311720Z 3118/0118 20010KT P6SM SCT070
     FM311900 28012KT P6SM SCT060 BKN150
     FM010300 23005KT P6SM FEW150
     FM011100 VRB03KT P6SM FEW040=



000
FTUS46 KOTX 311720
TAFCOE
TAF
KCOE 311720Z 3118/0118 20008KT P6SM BKN025 OVC040
     FM311900 23010G16KT P6SM VCSH FEW025 BKN045 BKN080
     FM010300 15005KT P6SM SCT070 SCT150
     FM011200 19006KT P6SM SCT020 SCT080
      AMD LTD TO CLD AND VIS=



000
FTUS46 KOTX 311720
TAFSFF
TAF
KSFF 311720Z 3118/0118 21010KT P6SM FEW025 SCT070 BKN100
     FM311900 23010G16KT P6SM SCT060 BKN080
     FM010200 VRB03KT P6SM SCT070 SCT150
     FM011200 22005KT P6SM SCT020 SCT120=



000
FTUS46 KOTX 311720
TAFCOE
TAF
KCOE 311720Z 3118/0118 20008KT P6SM BKN025 OVC040
     FM311900 23010G16KT P6SM VCSH FEW025 BKN045 BKN080
     FM010300 15005KT P6SM SCT070 SCT150
     FM011200 19006KT P6SM SCT020 SCT080
      AMD LTD TO CLD AND VIS=



000
FTUS46 KOTX 311720
TAFEAT
TAF
KEAT 311720Z 3118/0118 31012KT P6SM SCT200
     FM312200 30014G21KT P6SM FEW070 SCT200
     FM010400 30012KT P6SM FEW100
     FM011200 31008KT P6SM SCT030 SCT100=



000
FTUS46 KOTX 311720
TAFMWH
TAF
KMWH 311720Z 3118/0118 23006KT P6SM BKN080
     FM312000 25011KT P6SM FEW060 SCT150
     FM010300 28007KT P6SM FEW150
     FM010800 23004KT P6SM FEW100=



000
FTUS46 KOTX 311720
TAFEAT
TAF
KEAT 311720Z 3118/0118 31012KT P6SM SCT200
     FM312200 30014G21KT P6SM FEW070 SCT200
     FM010400 30012KT P6SM FEW100
     FM011200 31008KT P6SM SCT030 SCT100=



000
FTUS46 KOTX 311720
TAFMWH
TAF
KMWH 311720Z 3118/0118 23006KT P6SM BKN080
     FM312000 25011KT P6SM FEW060 SCT150
     FM010300 28007KT P6SM FEW150
     FM010800 23004KT P6SM FEW100=



000
FTUS46 KOTX 311452 AAA
TAFCOE
TAF AMD
KCOE 311452Z 3115/0112 18007KT P6SM BKN018 OVC025
     FM311800 23010G16KT P6SM FEW020 BKN045 BKN080
     FM010300 14005KT P6SM SCT070 SCT150
      AMD LTD TO CLD AND VIS=



000
FTUS46 KOTX 311452 AAA
TAFCOE
TAF AMD
KCOE 311452Z 3115/0112 18007KT P6SM BKN018 OVC025
     FM311800 23010G16KT P6SM FEW020 BKN045 BKN080
     FM010300 14005KT P6SM SCT070 SCT150
      AMD LTD TO CLD AND VIS=



000
FTUS46 KOTX 311242 AAA
TAFGEG
TAF AMD
KGEG 311242Z 3113/0112 21015KT P6SM SCT012 BKN090
     FM311800 22013G20KT P6SM SCT050 BKN090
     FM010300 21008KT P6SM SCT070 SCT150=



000
FTUS46 KOTX 311242 AAA
TAFGEG
TAF AMD
KGEG 311242Z 3113/0112 21015KT P6SM SCT012 BKN090
     FM311800 22013G20KT P6SM SCT050 BKN090
     FM010300 21008KT P6SM SCT070 SCT150=



000
FTUS46 KOTX 311120
TAFMWH
TAF
KMWH 311120Z 3112/0112 23006KT P6SM BKN070
     FM312000 25011KT P6SM FEW060 SCT150
     FM010300 28009KT P6SM FEW150
     FM010800 23004KT P6SM FEW100=



000
FTUS46 KOTX 311120
TAFSFF
TAF
KSFF 311120Z 3112/0112 23005KT P6SM SCT020 BKN070
      TEMPO 3113/3116 BKN020
     FM311900 23010G16KT P6SM SCT045 BKN080
     FM010300 VRB03KT P6SM SCT070 SCT150=



000
FTUS46 KOTX 311120
TAFPUW
TAF
KPUW 311120Z 3112/0112 25010G17KT P6SM SCT015 BKN070
     FM311600 25012G18KT P6SM SCT040 BKN060
     FM010200 25004KT P6SM SCT060=



000
FTUS46 KOTX 311120
TAFEAT
TAF
KEAT 311120Z 3112/0112 31011KT P6SM BKN200
     FM312200 30014G21KT P6SM FEW070 SCT200
     FM010400 30011KT P6SM FEW100=



000
FTUS46 KOTX 311120
TAFCOE
TAF
KCOE 311120Z 3112/0112 23006KT P6SM SCT025 OVC070
      TEMPO 3112/3115 BKN025 OVC070
     FM311800 23010G16KT P6SM BKN045 BKN080
     FM010300 14005KT P6SM SCT070 SCT150
      AMD LTD TO CLD AND VIS=



000
FTUS46 KOTX 311120
TAFPUW
TAF
KPUW 311120Z 3112/0112 25010G17KT P6SM SCT015 BKN070
     FM311600 25012G18KT P6SM SCT040 BKN060
     FM010200 25004KT P6SM SCT060=



000
FTUS46 KOTX 311120
TAFCOE
TAF
KCOE 311120Z 3112/0112 23006KT P6SM SCT025 OVC070
      TEMPO 3112/3115 BKN025 OVC070
     FM311800 23010G16KT P6SM BKN045 BKN080
     FM010300 14005KT P6SM SCT070 SCT150
      AMD LTD TO CLD AND VIS=



000
FTUS46 KOTX 311120
TAFGEG
TAF
KGEG 311120Z 3112/0112 20011KT P6SM SCT012 BKN070
     FM311700 22011KT P6SM SCT040 BKN070
     FM312000 23011G17KT P6SM SCT050 BKN090
     FM010300 21008KT P6SM SCT070 SCT150=



000
FTUS46 KOTX 311120
TAFSFF
TAF
KSFF 311120Z 3112/0112 23005KT P6SM SCT020 BKN070
      TEMPO 3113/3116 BKN020
     FM311900 23010G16KT P6SM SCT045 BKN080
     FM010300 VRB03KT P6SM SCT070 SCT150=



000
FTUS46 KOTX 311120
TAFEAT
TAF
KEAT 311120Z 3112/0112 31011KT P6SM BKN200
     FM312200 30014G21KT P6SM FEW070 SCT200
     FM010400 30011KT P6SM FEW100=



000
FTUS46 KOTX 311120
TAFGEG
TAF
KGEG 311120Z 3112/0112 20011KT P6SM SCT012 BKN070
     FM311700 22011KT P6SM SCT040 BKN070
     FM312000 23011G17KT P6SM SCT050 BKN090
     FM010300 21008KT P6SM SCT070 SCT150=



000
FTUS46 KOTX 311120
TAFMWH
TAF
KMWH 311120Z 3112/0112 23006KT P6SM BKN070
     FM312000 25011KT P6SM FEW060 SCT150
     FM010300 28009KT P6SM FEW150
     FM010800 23004KT P6SM FEW100=



000
FTUS46 KOTX 311120
TAFLWS
TAF
KLWS 311120Z 3112/0112 19006KT P6SM SCT060
     FM311800 30010KT P6SM SCT070
     FM010300 23005KT P6SM SKC=



000
FTUS46 KOTX 311120
TAFLWS
TAF
KLWS 311120Z 3112/0112 19006KT P6SM SCT060
     FM311800 30010KT P6SM SCT070
     FM010300 23005KT P6SM SKC=



000
FTUS46 KOTX 310754 AAA
TAFCOE
TAF AMD
KCOE 310754Z 3108/0106 23006KT P6SM BKN025 OVC060
     FM311700 23010KT P6SM BKN045 BKN080
     FM010300 20005KT P6SM SCT070 SCT150
      AMD LTD TO CLD AND VIS=



000
FTUS46 KOTX 310754 AAA
TAFCOE
TAF AMD
KCOE 310754Z 3108/0106 23006KT P6SM BKN025 OVC060
     FM311700 23010KT P6SM BKN045 BKN080
     FM010300 20005KT P6SM SCT070 SCT150
      AMD LTD TO CLD AND VIS=



000
FTUS46 KOTX 310620 AAA
TAFSFF
TAF AMD
KSFF 310620Z 3106/0106 21005KT P6SM SCT020 BKN100
      TEMPO 3106/3108 BKN020
     FM311100 22005KT P6SM SCT020 BKN070
      TEMPO 3113/3116 BKN020
     FM311700 23010KT P6SM SCT045 BKN080
     FM010300 24005KT P6SM SCT070 SCT150=



000
FTUS46 KOTX 310520
TAFSFF
TAF
KSFF 310520Z 3106/0106 23007KT P6SM SCT060 BKN100
     FM311100 22005KT P6SM SCT020 BKN070
      TEMPO 3113/3116 BKN020
     FM311700 23010KT P6SM SCT045 BKN080
     FM010300 24005KT P6SM SCT070 SCT150=



000
FTUS46 KOTX 310520
TAFCOE
TAF
KCOE 310520Z 3106/0106 21007KT P6SM SCT060 BKN080
     FM311100 20007KT P6SM SCT020 BKN070
      TEMPO 3112/3116 BKN020
     FM311700 23010KT P6SM SCT045 BKN080
     FM010300 20005KT P6SM SCT070 SCT150
      AMD LTD TO CLD AND VIS=



000
FTUS46 KOTX 310520
TAFSFF
TAF
KSFF 310520Z 3106/0106 23007KT P6SM SCT060 BKN100
     FM311100 22005KT P6SM SCT020 BKN070
      TEMPO 3113/3116 BKN020
     FM311700 23010KT P6SM SCT045 BKN080
     FM010300 24005KT P6SM SCT070 SCT150=



000
FTUS46 KOTX 310520
TAFLWS
TAF
KLWS 310520Z 3106/0106 19009KT P6SM SCT060 BKN080
     FM311800 30010KT P6SM SCT070 BKN200
     FM010300 25005KT P6SM FEW070=



000
FTUS46 KOTX 310520
TAFMWH
TAF
KMWH 310520Z 3106/0106 23006KT P6SM SCT100 BKN200
     FM312000 25011KT P6SM FEW060 SCT150
     FM010200 28010KT P6SM FEW150=



000
FTUS46 KOTX 310520
TAFCOE
TAF
KCOE 310520Z 3106/0106 21007KT P6SM SCT060 BKN080
     FM311100 20007KT P6SM SCT020 BKN070
      TEMPO 3112/3116 BKN020
     FM311700 23010KT P6SM SCT045 BKN080
     FM010300 20005KT P6SM SCT070 SCT150
      AMD LTD TO CLD AND VIS=



000
FTUS46 KOTX 310520
TAFMWH
TAF
KMWH 310520Z 3106/0106 23006KT P6SM SCT100 BKN200
     FM312000 25011KT P6SM FEW060 SCT150
     FM010200 28010KT P6SM FEW150=



000
FTUS46 KOTX 310520
TAFPUW
TAF
KPUW 310520Z 3106/0106 24010KT P6SM SCT050 BKN080
     FM311100 25008KT P6SM SCT015 BKN050
      TEMPO 3112/3115 BKN015
     FM311600 25011KT P6SM SCT040 BKN060
     FM312000 26011G16KT P6SM SCT060 BKN200
     FM010200 25006KT P6SM SCT060=



000
FTUS46 KOTX 310520
TAFLWS
TAF
KLWS 310520Z 3106/0106 19009KT P6SM SCT060 BKN080
     FM311800 30010KT P6SM SCT070 BKN200
     FM010300 25005KT P6SM FEW070=



000
FTUS46 KOTX 310520
TAFGEG
TAF
KGEG 310520Z 3106/0106 21011KT P6SM SCT060 BKN100
     FM311100 20010KT P6SM SCT015 BKN070
     FM311700 22011KT P6SM SCT035 BKN060
     FM312000 23011G17KT P6SM SCT050 BKN090
     FM010300 21010KT P6SM SCT070 SCT150=



000
FTUS46 KOTX 310520
TAFPUW
TAF
KPUW 310520Z 3106/0106 24010KT P6SM SCT050 BKN080
     FM311100 25008KT P6SM SCT015 BKN050
      TEMPO 3112/3115 BKN015
     FM311600 25011KT P6SM SCT040 BKN060
     FM312000 26011G16KT P6SM SCT060 BKN200
     FM010200 25006KT P6SM SCT060=



000
FTUS46 KOTX 310520
TAFGEG
TAF
KGEG 310520Z 3106/0106 21011KT P6SM SCT060 BKN100
     FM311100 20010KT P6SM SCT015 BKN070
     FM311700 22011KT P6SM SCT035 BKN060
     FM312000 23011G17KT P6SM SCT050 BKN090
     FM010300 21010KT P6SM SCT070 SCT150=



000
FTUS46 KOTX 310520
TAFEAT
TAF
KEAT 310520Z 3106/0106 30011KT P6SM SCT100 SCT200
     FM311600 30014KT P6SM FEW070 SCT200
     FM010000 30016G23KT P6SM FEW070 SCT200=



000
FTUS46 KOTX 310520
TAFEAT
TAF
KEAT 310520Z 3106/0106 30011KT P6SM SCT100 SCT200
     FM311600 30014KT P6SM FEW070 SCT200
     FM010000 30016G23KT P6SM FEW070 SCT200=



000
FTUS46 KOTX 310047 AAA
TAFLWS
TAF AMD
KLWS 310047Z 3101/3124 31013G18KT P6SM VCSH SCT070 BKN110
     FM310300 23007KT P6SM SCT070 BKN200
     FM311100 14003KT P6SM BKN060 OVC090=



000
FTUS46 KOTX 302325
TAFSFF
TAF
KSFF 302325Z 3100/3124 24010G16KT P6SM SCT070 BKN120 BKN200
     FM310200 23006KT P6SM SCT070 BKN100=



000
FTUS46 KOTX 302325
TAFMWH
TAF
KMWH 302325Z 3100/3124 27011KT P6SM SCT070 BKN100
     FM310500 27008KT P6SM SCT100 BKN200
     FM310900 23005KT P6SM SCT100 SCT200
     FM312000 25011KT P6SM FEW060 SCT150=



000
FTUS46 KOTX 302325
TAFLWS
TAF
KLWS 302325Z 3100/3124 30011G17KT P6SM VCTS SCT070CB BKN110
     FM310300 23007KT P6SM SCT070 BKN200
     FM311100 14003KT P6SM BKN060 OVC090=



000
FTUS46 KOTX 302325
TAFGEG
TAF
KGEG 302325Z 3100/3124 23012G20KT P6SM SCT070 SCT120 BKN200
     FM310200 23011KT P6SM SCT070 BKN100 BKN200
     FM310600 21010KT P6SM SCT060 BKN100
     FM312000 23011G17KT P6SM SCT050 BKN090=



000
FTUS46 KOTX 302325
TAFCOE
TAF
KCOE 302325Z 3100/3124 23010G16KT P6SM SCT060 BKN100 BKN200
     FM310300 21008KT P6SM VCSH SCT060 BKN100
      AMD LTD TO CLD AND VIS=



000
FTUS46 KOTX 302325
TAFEAT
TAF
KEAT 302325Z 3100/3124 30010G17KT P6SM SCT090 BKN200
     FM310500 30011KT P6SM SCT100 SCT200
     FM311600 30014KT P6SM FEW070 SCT200=



000
FTUS46 KOTX 302325
TAFPUW
TAF
KPUW 302325Z 3100/3124 26012G18KT P6SM VCSH SCT050 BKN080
     FM310300 24010KT P6SM SCT050 BKN080
     FM311100 25008KT P6SM BKN015 BKN050
     FM311600 25011KT P6SM SCT040 BKN060=



000
FTUS46 KOTX 302325
TAFSFF
TAF
KSFF 302325Z 3100/3124 24010G16KT P6SM SCT070 BKN120 BKN200
     FM310200 23006KT P6SM SCT070 BKN100=



000
FTUS46 KOTX 302325
TAFCOE
TAF
KCOE 302325Z 3100/3124 23010G16KT P6SM SCT060 BKN100 BKN200
     FM310300 21008KT P6SM VCSH SCT060 BKN100
      AMD LTD TO CLD AND VIS=



000
FTUS46 KOTX 302325
TAFLWS
TAF
KLWS 302325Z 3100/3124 30011G17KT P6SM VCTS SCT070CB BKN110
     FM310300 23007KT P6SM SCT070 BKN200
     FM311100 14003KT P6SM BKN060 OVC090=



000
FTUS46 KOTX 302325
TAFGEG
TAF
KGEG 302325Z 3100/3124 23012G20KT P6SM SCT070 SCT120 BKN200
     FM310200 23011KT P6SM SCT070 BKN100 BKN200
     FM310600 21010KT P6SM SCT060 BKN100
     FM312000 23011G17KT P6SM SCT050 BKN090=



000
FTUS46 KOTX 302325
TAFMWH
TAF
KMWH 302325Z 3100/3124 27011KT P6SM SCT070 BKN100
     FM310500 27008KT P6SM SCT100 BKN200
     FM310900 23005KT P6SM SCT100 SCT200
     FM312000 25011KT P6SM FEW060 SCT150=



000
FTUS46 KOTX 302325
TAFEAT
TAF
KEAT 302325Z 3100/3124 30010G17KT P6SM SCT090 BKN200
     FM310500 30011KT P6SM SCT100 SCT200
     FM311600 30014KT P6SM FEW070 SCT200=



000
FTUS46 KOTX 302325
TAFPUW
TAF
KPUW 302325Z 3100/3124 26012G18KT P6SM VCSH SCT050 BKN080
     FM310300 24010KT P6SM SCT050 BKN080
     FM311100 25008KT P6SM BKN015 BKN050
     FM311600 25011KT P6SM SCT040 BKN060=



    US Dept of Commerce
    National Oceanic and Atmospheric Administration
    National Weather Service
    1325 East West Highway
    Silver Spring, MD 20910
    Page Author: NWS Internet Services Team
Disclaimer
Information Quality
Credits
Glossary
Privacy Policy
Freedom of Information Act (FOIA)
About Us
Career Opportunities